sensor_id;sensor_type;location;lat;lon;timestamp;temperature;humidity
2889;DHT22;1453;42.708;23.282;2023-03-01T00:01:21;6.20;99.90
2889;DHT22;1453;42.708;23.282;2023-03-01T00:03:48;6.20;99.90
2889;DHT22;1453;42.708;23.282;2023-03-01T00:06:14;6.10;99.90
2889;DHT22;1453;42.708;23.282;2023-03-01T00:08:40;6.10;99.90
2889;DHT22;1453;42.708;23.282;2023-03-01T00:13:43;6.10;99.90
2889;DHT22;1453;42.708;23.282;2023-03-01T00:16:13;6.10;99.90
2889;DHT22;1453;42.708;23.282;2023-03-01T00:18:40;6.00;99.90
2889;DHT22;1453;42.708;23.282;2023-03-01T00:21:06;6.00;99.90
2889;DHT22;1453;42.708;23.282;2023-03-01T00:23:34;5.90;99.90
2889;DHT22;1453;42.708;23.282;2023-03-01T00:26:00;5.90;99.90
2889;DHT22;1453;42.708;23.282;2023-03-01T00:28:26;5.90;99.90
2889;DHT22;1453;42.708;23.282;2023-03-01T00:30:52;5.90;99.90
2889;DHT22;1453;42.708;23.282;2023-03-01T00:33:19;5.90;99.90
2889;DHT22;1453;42.708;23.282;2023-03-01T00:35:45;5.80;99.90
2889;DHT22;1453;42.708;23.282;2023-03-01T00:38:11;5.90;99.90
2889;DHT22;1453;42.708;23.282;2023-03-01T00:40:36;5.90;99.90
2889;DHT22;1453;42.708;23.282;2023-03-01T00:43:03;5.90;99.90
2889;DHT22;1453;42.708;23.282;2023-03-01T00:45:29;5.80;99.90
2889;DHT22;1453;42.708;23.282;2023-03-01T00:47:56;5.80;99.90
2889;DHT22;1453;42.708;23.282;2023-03-01T00:50:23;5.70;99.90
2889;DHT22;1453;42.708;23.282;2023-03-01T00:52:54;5.80;99.90
2889;DHT22;1453;42.708;23.282;2023-03-01T00:55:21;5.70;99.90
2889;DHT22;1453;42.708;23.282;2023-03-01T00:57:47;5.70;99.90
2889;DHT22;1453;42.708;23.282;2023-03-01T01:00:13;5.70;99.90
2889;DHT22;1453;42.708;23.282;2023-03-01T01:02:39;5.70;99.90
2889;DHT22;1453;42.708;23.282;2023-03-01T01:05:05;5.60;99.90
2889;DHT22;1453;42.708;23.282;2023-03-01T01:07:31;5.60;99.90
2889;DHT22;1453;42.708;23.282;2023-03-01T01:09:57;5.70;99.90
2889;DHT22;1453;42.708;23.282;2023-03-01T01:12:23;5.70;99.90
2889;DHT22;1453;42.708;23.282;2023-03-01T01:14:49;5.70;99.90
2889;DHT22;1453;42.708;23.282;2023-03-01T01:17:14;5.70;99.90
2889;DHT22;1453;42.708;23.282;2023-03-01T01:19:40;5.70;99.90
2889;DHT22;1453;42.708;23.282;2023-03-01T01:22:06;5.80;99.90
2889;DHT22;1453;42.708;23.282;2023-03-01T01:24:32;5.70;99.90
2889;DHT22;1453;42.708;23.282;2023-03-01T01:26:58;5.70;99.90
2889;DHT22;1453;42.708;23.282;2023-03-01T01:29:24;5.70;99.90
2889;DHT22;1453;42.708;23.282;2023-03-01T01:31:49;5.80;99.90
2889;DHT22;1453;42.708;23.282;2023-03-01T01:34:18;5.80;99.90
2889;DHT22;1453;42.708;23.282;2023-03-01T01:36:50;5.70;99.90
2889;DHT22;1453;42.708;23.282;2023-03-01T01:39:19;5.60;99.90
2889;DHT22;1453;42.708;23.282;2023-03-01T01:41:46;5.60;99.90
2889;DHT22;1453;42.708;23.282;2023-03-01T01:44:19;5.70;99.90
2889;DHT22;1453;42.708;23.282;2023-03-01T01:46:50;5.70;99.90
2889;DHT22;1453;42.708;23.282;2023-03-01T01:54:56;5.70;99.90
2889;DHT22;1453;42.708;23.282;2023-03-01T01:57:27;5.70;99.90
2889;DHT22;1453;42.708;23.282;2023-03-01T02:00:00;5.70;99.90
2889;DHT22;1453;42.708;23.282;2023-03-01T02:02:28;5.70;99.90
2889;DHT22;1453;42.708;23.282;2023-03-01T02:05:09;5.60;99.90
2889;DHT22;1453;42.708;23.282;2023-03-01T02:07:39;5.60;99.90
2889;DHT22;1453;42.708;23.282;2023-03-01T02:10:05;5.80;99.90
2889;DHT22;1453;42.708;23.282;2023-03-01T02:12:32;5.80;99.90
2889;DHT22;1453;42.708;23.282;2023-03-01T02:14:59;5.80;99.90
2889;DHT22;1453;42.708;23.282;2023-03-01T02:17:25;5.80;99.90
2889;DHT22;1453;42.708;23.282;2023-03-01T02:22:44;5.90;99.90
2889;DHT22;1453;42.708;23.282;2023-03-01T02:30:33;5.90;99.90
2889;DHT22;1453;42.708;23.282;2023-03-01T02:33:00;5.80;99.90
2889;DHT22;1453;42.708;23.282;2023-03-01T02:35:35;5.80;99.90
2889;DHT22;1453;42.708;23.282;2023-03-01T02:38:06;5.70;99.90
2889;DHT22;1453;42.708;23.282;2023-03-01T02:40:34;5.70;99.90
2889;DHT22;1453;42.708;23.282;2023-03-01T02:43:03;5.70;99.90
2889;DHT22;1453;42.708;23.282;2023-03-01T02:45:29;5.70;99.90
2889;DHT22;1453;42.708;23.282;2023-03-01T02:47:56;5.70;99.90
2889;DHT22;1453;42.708;23.282;2023-03-01T02:50:45;5.70;99.90
2889;DHT22;1453;42.708;23.282;2023-03-01T02:56:13;5.70;99.90
2889;DHT22;1453;42.708;23.282;2023-03-01T02:58:42;5.70;99.90
2889;DHT22;1453;42.708;23.282;2023-03-01T03:01:19;5.70;99.90
2889;DHT22;1453;42.708;23.282;2023-03-01T03:03:46;5.70;99.90
2889;DHT22;1453;42.708;23.282;2023-03-01T03:06:12;5.60;99.90
2889;DHT22;1453;42.708;23.282;2023-03-01T03:08:38;5.60;99.90
2889;DHT22;1453;42.708;23.282;2023-03-01T03:11:04;5.60;99.90
2889;DHT22;1453;42.708;23.282;2023-03-01T03:13:30;5.50;99.90
2889;DHT22;1453;42.708;23.282;2023-03-01T03:15:57;5.60;99.90
2889;DHT22;1453;42.708;23.282;2023-03-01T03:18:24;5.60;99.90
2889;DHT22;1453;42.708;23.282;2023-03-01T03:20:53;5.60;99.90
2889;DHT22;1453;42.708;23.282;2023-03-01T03:23:21;5.60;99.90
2889;DHT22;1453;42.708;23.282;2023-03-01T03:25:50;5.60;99.90
2889;DHT22;1453;42.708;23.282;2023-03-01T03:28:17;5.60;99.90
2889;DHT22;1453;42.708;23.282;2023-03-01T03:30:43;5.50;99.90
2889;DHT22;1453;42.708;23.282;2023-03-01T03:33:12;5.50;99.90
2889;DHT22;1453;42.708;23.282;2023-03-01T03:35:45;5.50;99.90
2889;DHT22;1453;42.708;23.282;2023-03-01T03:38:13;5.40;99.90
2889;DHT22;1453;42.708;23.282;2023-03-01T03:40:55;5.50;99.90
2889;DHT22;1453;42.708;23.282;2023-03-01T03:43:30;5.60;99.90
2889;DHT22;1453;42.708;23.282;2023-03-01T03:46:15;5.50;99.90
2889;DHT22;1453;42.708;23.282;2023-03-01T03:48:44;5.40;99.90
2889;DHT22;1453;42.708;23.282;2023-03-01T03:51:12;5.40;99.90
2889;DHT22;1453;42.708;23.282;2023-03-01T03:53:39;5.40;99.90
2889;DHT22;1453;42.708;23.282;2023-03-01T03:56:06;5.50;99.90
2889;DHT22;1453;42.708;23.282;2023-03-01T03:59:09;5.50;99.90
2889;DHT22;1453;42.708;23.282;2023-03-01T04:01:36;5.50;99.90
2889;DHT22;1453;42.708;23.282;2023-03-01T04:04:21;5.50;99.90
2889;DHT22;1453;42.708;23.282;2023-03-01T04:06:47;5.50;99.90
2889;DHT22;1453;42.708;23.282;2023-03-01T04:09:13;5.60;99.90
2889;DHT22;1453;42.708;23.282;2023-03-01T04:11:39;5.50;99.90
2889;DHT22;1453;42.708;23.282;2023-03-01T04:14:05;5.50;99.90
2889;DHT22;1453;42.708;23.282;2023-03-01T04:16:31;5.50;99.90
2889;DHT22;1453;42.708;23.282;2023-03-01T04:18:56;5.50;99.90
2889;DHT22;1453;42.708;23.282;2023-03-01T04:21:25;5.40;99.90
2889;DHT22;1453;42.708;23.282;2023-03-01T04:23:51;5.50;99.90
2889;DHT22;1453;42.708;23.282;2023-03-01T04:26:19;5.40;99.90
2889;DHT22;1453;42.708;23.282;2023-03-01T04:28:45;5.40;99.90
2889;DHT22;1453;42.708;23.282;2023-03-01T04:31:15;5.40;99.90
2889;DHT22;1453;42.708;23.282;2023-03-01T04:33:48;5.40;99.90
2889;DHT22;1453;42.708;23.282;2023-03-01T04:36:19;5.30;99.90
2889;DHT22;1453;42.708;23.282;2023-03-01T04:38:46;5.20;99.90
2889;DHT22;1453;42.708;23.282;2023-03-01T04:41:17;5.20;99.90
2889;DHT22;1453;42.708;23.282;2023-03-01T04:43:44;5.30;99.90
2889;DHT22;1453;42.708;23.282;2023-03-01T04:46:12;5.40;99.90
2889;DHT22;1453;42.708;23.282;2023-03-01T04:48:42;5.40;99.90
2889;DHT22;1453;42.708;23.282;2023-03-01T04:51:09;5.30;99.90
2889;DHT22;1453;42.708;23.282;2023-03-01T04:53:39;5.30;99.90
2889;DHT22;1453;42.708;23.282;2023-03-01T04:56:06;5.30;99.90
2889;DHT22;1453;42.708;23.282;2023-03-01T04:58:32;5.30;99.90
2889;DHT22;1453;42.708;23.282;2023-03-01T05:00:58;5.20;99.90
2889;DHT22;1453;42.708;23.282;2023-03-01T05:03:24;5.30;99.90
2889;DHT22;1453;42.708;23.282;2023-03-01T05:05:51;5.30;99.90
2889;DHT22;1453;42.708;23.282;2023-03-01T05:08:18;5.20;99.90
2889;DHT22;1453;42.708;23.282;2023-03-01T05:10:49;5.30;99.90
2889;DHT22;1453;42.708;23.282;2023-03-01T05:13:16;5.30;99.90
2889;DHT22;1453;42.708;23.282;2023-03-01T05:15:55;5.30;99.90
2889;DHT22;1453;42.708;23.282;2023-03-01T05:18:26;5.30;99.90
2889;DHT22;1453;42.708;23.282;2023-03-01T05:21:08;5.20;99.90
2889;DHT22;1453;42.708;23.282;2023-03-01T05:23:36;5.10;99.90
2889;DHT22;1453;42.708;23.282;2023-03-01T05:26:04;5.20;99.90
2889;DHT22;1453;42.708;23.282;2023-03-01T05:28:31;5.20;99.90
2889;DHT22;1453;42.708;23.282;2023-03-01T05:30:58;5.20;99.90
2889;DHT22;1453;42.708;23.282;2023-03-01T05:33:24;5.20;99.90
2889;DHT22;1453;42.708;23.282;2023-03-01T05:35:51;5.10;99.90
2889;DHT22;1453;42.708;23.282;2023-03-01T05:38:19;5.10;99.90
2889;DHT22;1453;42.708;23.282;2023-03-01T05:40:47;5.10;99.90
2889;DHT22;1453;42.708;23.282;2023-03-01T05:43:15;5.10;99.90
2889;DHT22;1453;42.708;23.282;2023-03-01T05:45:42;5.00;99.90
2889;DHT22;1453;42.708;23.282;2023-03-01T05:48:09;5.10;99.90
2889;DHT22;1453;42.708;23.282;2023-03-01T05:50:38;5.10;99.90
2889;DHT22;1453;42.708;23.282;2023-03-01T05:53:25;5.10;99.90
2889;DHT22;1453;42.708;23.282;2023-03-01T05:55:51;5.20;99.90
2889;DHT22;1453;42.708;23.282;2023-03-01T05:58:19;5.20;99.90
2889;DHT22;1453;42.708;23.282;2023-03-01T06:00:47;5.10;99.90
2889;DHT22;1453;42.708;23.282;2023-03-01T06:03:15;5.00;99.90
2889;DHT22;1453;42.708;23.282;2023-03-01T06:05:42;5.00;99.90
2889;DHT22;1453;42.708;23.282;2023-03-01T06:08:10;5.10;99.90
2889;DHT22;1453;42.708;23.282;2023-03-01T06:10:36;5.20;99.90
2889;DHT22;1453;42.708;23.282;2023-03-01T06:13:03;5.20;99.90
2889;DHT22;1453;42.708;23.282;2023-03-01T06:15:28;5.20;99.90
2889;DHT22;1453;42.708;23.282;2023-03-01T06:17:55;5.30;99.90
2889;DHT22;1453;42.708;23.282;2023-03-01T06:20:26;5.30;99.90
2889;DHT22;1453;42.708;23.282;2023-03-01T06:22:52;5.20;99.90
2889;DHT22;1453;42.708;23.282;2023-03-01T06:25:21;5.30;99.90
2889;DHT22;1453;42.708;23.282;2023-03-01T06:27:48;5.20;99.90
2889;DHT22;1453;42.708;23.282;2023-03-01T06:30:16;5.20;99.90
2889;DHT22;1453;42.708;23.282;2023-03-01T06:32:43;5.20;99.90
2889;DHT22;1453;42.708;23.282;2023-03-01T06:35:14;5.30;99.90
2889;DHT22;1453;42.708;23.282;2023-03-01T06:37:44;5.30;99.90
2889;DHT22;1453;42.708;23.282;2023-03-01T06:40:11;5.20;99.90
2889;DHT22;1453;42.708;23.282;2023-03-01T06:42:40;5.30;99.90
2889;DHT22;1453;42.708;23.282;2023-03-01T06:45:08;5.30;99.90
2889;DHT22;1453;42.708;23.282;2023-03-01T06:47:35;5.40;99.90
2889;DHT22;1453;42.708;23.282;2023-03-01T06:50:01;5.40;99.90
2889;DHT22;1453;42.708;23.282;2023-03-01T06:52:27;5.40;99.90
2889;DHT22;1453;42.708;23.282;2023-03-01T06:54:53;5.50;99.90
2889;DHT22;1453;42.708;23.282;2023-03-01T06:57:19;5.40;99.90
2889;DHT22;1453;42.708;23.282;2023-03-01T06:59:46;5.40;99.90
2889;DHT22;1453;42.708;23.282;2023-03-01T07:02:13;5.50;99.90
2889;DHT22;1453;42.708;23.282;2023-03-01T07:04:41;5.50;99.90
2889;DHT22;1453;42.708;23.282;2023-03-01T07:07:07;5.50;99.90
2889;DHT22;1453;42.708;23.282;2023-03-01T07:09:33;5.70;99.90
2889;DHT22;1453;42.708;23.282;2023-03-01T07:11:59;5.70;99.90
2889;DHT22;1453;42.708;23.282;2023-03-01T07:14:25;5.60;99.90
2889;DHT22;1453;42.708;23.282;2023-03-01T07:16:52;5.60;99.90
2889;DHT22;1453;42.708;23.282;2023-03-01T07:19:18;5.50;99.90
2889;DHT22;1453;42.708;23.282;2023-03-01T07:21:45;5.60;99.90
2889;DHT22;1453;42.708;23.282;2023-03-01T07:24:11;5.80;99.90
2889;DHT22;1453;42.708;23.282;2023-03-01T07:26:38;5.90;99.90
2889;DHT22;1453;42.708;23.282;2023-03-01T07:29:05;5.90;99.90
2889;DHT22;1453;42.708;23.282;2023-03-01T07:31:32;6.00;99.90
2889;DHT22;1453;42.708;23.282;2023-03-01T07:33:58;6.00;99.90
2889;DHT22;1453;42.708;23.282;2023-03-01T07:36:24;6.20;99.90
2889;DHT22;1453;42.708;23.282;2023-03-01T07:38:50;6.00;99.90
2889;DHT22;1453;42.708;23.282;2023-03-01T07:41:17;5.90;99.90
2889;DHT22;1453;42.708;23.282;2023-03-01T07:43:43;6.00;99.90
2889;DHT22;1453;42.708;23.282;2023-03-01T07:46:09;6.10;99.90
2889;DHT22;1453;42.708;23.282;2023-03-01T07:48:35;6.10;99.90
2889;DHT22;1453;42.708;23.282;2023-03-01T07:51:02;6.10;99.90
2889;DHT22;1453;42.708;23.282;2023-03-01T07:53:30;6.10;99.90
2889;DHT22;1453;42.708;23.282;2023-03-01T07:58:34;6.30;99.90
2889;DHT22;1453;42.708;23.282;2023-03-01T08:01:06;6.10;99.90
2889;DHT22;1453;42.708;23.282;2023-03-01T08:03:34;6.20;99.90
2889;DHT22;1453;42.708;23.282;2023-03-01T08:06:01;6.40;99.90
2889;DHT22;1453;42.708;23.282;2023-03-01T08:08:28;6.60;99.90
2889;DHT22;1453;42.708;23.282;2023-03-01T08:10:58;6.40;99.90
2889;DHT22;1453;42.708;23.282;2023-03-01T08:13:25;6.30;99.90
2889;DHT22;1453;42.708;23.282;2023-03-01T08:15:51;6.20;99.90
2889;DHT22;1453;42.708;23.282;2023-03-01T08:18:19;6.40;99.90
2889;DHT22;1453;42.708;23.282;2023-03-01T08:20:45;6.50;99.90
2889;DHT22;1453;42.708;23.282;2023-03-01T08:23:11;6.60;99.90
2889;DHT22;1453;42.708;23.282;2023-03-01T08:25:38;6.60;99.90
2889;DHT22;1453;42.708;23.282;2023-03-01T08:28:04;6.70;99.90
2889;DHT22;1453;42.708;23.282;2023-03-01T08:30:30;6.80;99.90
2889;DHT22;1453;42.708;23.282;2023-03-01T08:32:56;6.80;99.90
2889;DHT22;1453;42.708;23.282;2023-03-01T08:35:22;6.70;99.90
2889;DHT22;1453;42.708;23.282;2023-03-01T08:37:48;6.70;99.90
2889;DHT22;1453;42.708;23.282;2023-03-01T08:40:14;6.70;99.90
2889;DHT22;1453;42.708;23.282;2023-03-01T08:42:41;6.90;99.90
2889;DHT22;1453;42.708;23.282;2023-03-01T08:45:08;6.80;99.90
2889;DHT22;1453;42.708;23.282;2023-03-01T08:47:35;6.70;99.90
2889;DHT22;1453;42.708;23.282;2023-03-01T08:50:01;6.70;99.90
2889;DHT22;1453;42.708;23.282;2023-03-01T08:52:27;6.90;99.90
2889;DHT22;1453;42.708;23.282;2023-03-01T08:54:54;6.90;99.90
2889;DHT22;1453;42.708;23.282;2023-03-01T08:57:19;7.10;99.90
2889;DHT22;1453;42.708;23.282;2023-03-01T08:59:45;7.10;99.90
2889;DHT22;1453;42.708;23.282;2023-03-01T09:02:16;7.10;99.90
2889;DHT22;1453;42.708;23.282;2023-03-01T09:04:43;7.20;99.90
2889;DHT22;1453;42.708;23.282;2023-03-01T09:07:10;7.40;99.90
2889;DHT22;1453;42.708;23.282;2023-03-01T09:09:36;7.40;99.90
2889;DHT22;1453;42.708;23.282;2023-03-01T09:12:03;7.30;99.90
2889;DHT22;1453;42.708;23.282;2023-03-01T09:14:29;7.30;99.90
2889;DHT22;1453;42.708;23.282;2023-03-01T09:16:55;7.40;99.90
2889;DHT22;1453;42.708;23.282;2023-03-01T09:19:21;7.30;99.90
2889;DHT22;1453;42.708;23.282;2023-03-01T09:21:47;7.00;99.90
2889;DHT22;1453;42.708;23.282;2023-03-01T09:24:20;7.10;99.90
2889;DHT22;1453;42.708;23.282;2023-03-01T09:26:48;7.10;99.90
2889;DHT22;1453;42.708;23.282;2023-03-01T09:29:18;7.30;99.90
2889;DHT22;1453;42.708;23.282;2023-03-01T09:31:44;7.40;99.90
2889;DHT22;1453;42.708;23.282;2023-03-01T09:34:10;7.40;99.90
2889;DHT22;1453;42.708;23.282;2023-03-01T09:36:37;7.50;99.90
2889;DHT22;1453;42.708;23.282;2023-03-01T09:39:04;7.80;99.90
2889;DHT22;1453;42.708;23.282;2023-03-01T09:41:57;7.80;99.90
2889;DHT22;1453;42.708;23.282;2023-03-01T09:44:45;7.20;99.90
2889;DHT22;1453;42.708;23.282;2023-03-01T09:47:21;7.20;99.90
2889;DHT22;1453;42.708;23.282;2023-03-01T09:52:54;7.40;99.90
2889;DHT22;1453;42.708;23.282;2023-03-01T09:56:09;7.40;99.90
2889;DHT22;1453;42.708;23.282;2023-03-01T10:04:50;7.80;99.90
2889;DHT22;1453;42.708;23.282;2023-03-01T10:10:38;7.60;99.90
2889;DHT22;1453;42.708;23.282;2023-03-01T10:13:21;7.60;99.90
2889;DHT22;1453;42.708;23.282;2023-03-01T10:15:56;7.50;99.90
2889;DHT22;1453;42.708;23.282;2023-03-01T10:18:30;7.50;99.90
2889;DHT22;1453;42.708;23.282;2023-03-01T10:21:12;7.70;99.90
2889;DHT22;1453;42.708;23.282;2023-03-01T10:23:43;8.00;99.90
2889;DHT22;1453;42.708;23.282;2023-03-01T10:31:23;7.80;99.90
2889;DHT22;1453;42.708;23.282;2023-03-01T10:33:55;7.90;99.90
2889;DHT22;1453;42.708;23.282;2023-03-01T10:36:23;8.00;99.90
2889;DHT22;1453;42.708;23.282;2023-03-01T10:38:55;8.20;99.90
2889;DHT22;1453;42.708;23.282;2023-03-01T10:41:26;8.20;99.90
2889;DHT22;1453;42.708;23.282;2023-03-01T10:43:57;8.80;99.90
2889;DHT22;1453;42.708;23.282;2023-03-01T10:49:16;8.30;99.90
2889;DHT22;1453;42.708;23.282;2023-03-01T10:51:48;8.10;99.90
2889;DHT22;1453;42.708;23.282;2023-03-01T10:54:29;7.90;99.90
2889;DHT22;1453;42.708;23.282;2023-03-01T10:57:02;8.00;99.90
2889;DHT22;1453;42.708;23.282;2023-03-01T10:59:34;7.90;99.90
2889;DHT22;1453;42.708;23.282;2023-03-01T11:02:31;8.10;99.90
2889;DHT22;1453;42.708;23.282;2023-03-01T11:05:02;8.10;99.90
2889;DHT22;1453;42.708;23.282;2023-03-01T11:07:57;8.10;99.90
2889;DHT22;1453;42.708;23.282;2023-03-01T11:10:29;8.10;99.90
2889;DHT22;1453;42.708;23.282;2023-03-01T11:13:18;7.90;99.90
2889;DHT22;1453;42.708;23.282;2023-03-01T11:16:09;7.80;99.90
2889;DHT22;1453;42.708;23.282;2023-03-01T11:18:35;7.80;99.90
2889;DHT22;1453;42.708;23.282;2023-03-01T11:21:02;7.80;99.90
2889;DHT22;1453;42.708;23.282;2023-03-01T11:23:30;7.90;99.90
2889;DHT22;1453;42.708;23.282;2023-03-01T11:26:01;7.70;99.90
2889;DHT22;1453;42.708;23.282;2023-03-01T11:28:30;7.60;99.90
2889;DHT22;1453;42.708;23.282;2023-03-01T11:31:06;7.70;99.90
2889;DHT22;1453;42.708;23.282;2023-03-01T11:36:54;7.80;99.90
2889;DHT22;1453;42.708;23.282;2023-03-01T11:42:28;7.90;99.90
2889;DHT22;1453;42.708;23.282;2023-03-01T11:45:04;7.80;99.90
2889;DHT22;1453;42.708;23.282;2023-03-01T11:50:44;8.10;99.90
2889;DHT22;1453;42.708;23.282;2023-03-01T11:57:00;8.20;99.90
2889;DHT22;1453;42.708;23.282;2023-03-01T12:10:56;7.70;99.90
2889;DHT22;1453;42.708;23.282;2023-03-01T12:13:27;7.70;99.90
2889;DHT22;1453;42.708;23.282;2023-03-01T12:16:34;7.70;99.90
2889;DHT22;1453;42.708;23.282;2023-03-01T12:28:00;8.30;99.90
2889;DHT22;1453;42.708;23.282;2023-03-01T12:51:31;8.50;99.90
2889;DHT22;1453;42.708;23.282;2023-03-01T12:54:01;8.40;99.90
2889;DHT22;1453;42.708;23.282;2023-03-01T12:56:35;8.40;99.90
2889;DHT22;1453;42.708;23.282;2023-03-01T12:59:31;8.20;99.90
2889;DHT22;1453;42.708;23.282;2023-03-01T13:07:57;8.10;99.90
2889;DHT22;1453;42.708;23.282;2023-03-01T13:11:03;8.10;99.90
2889;DHT22;1453;42.708;23.282;2023-03-01T13:13:31;8.20;99.90
2889;DHT22;1453;42.708;23.282;2023-03-01T13:15:57;8.30;99.90
2889;DHT22;1453;42.708;23.282;2023-03-01T13:21:47;8.20;99.90
2889;DHT22;1453;42.708;23.282;2023-03-01T13:24:40;8.20;99.90
2889;DHT22;1453;42.708;23.282;2023-03-01T13:35:03;7.90;99.90
2889;DHT22;1453;42.708;23.282;2023-03-01T13:37:35;8.10;99.90
2889;DHT22;1453;42.708;23.282;2023-03-01T13:42:53;8.10;99.90
2889;DHT22;1453;42.708;23.282;2023-03-01T13:45:38;8.00;99.90
2889;DHT22;1453;42.708;23.282;2023-03-01T13:48:20;7.90;99.90
2889;DHT22;1453;42.708;23.282;2023-03-01T13:50:53;8.00;99.90
2889;DHT22;1453;42.708;23.282;2023-03-01T13:53:26;8.10;99.90
2889;DHT22;1453;42.708;23.282;2023-03-01T13:56:02;8.00;99.90
2889;DHT22;1453;42.708;23.282;2023-03-01T14:01:26;7.70;99.90
2889;DHT22;1453;42.708;23.282;2023-03-01T14:03:52;7.80;99.90
2889;DHT22;1453;42.708;23.282;2023-03-01T14:06:27;7.90;99.90
2889;DHT22;1453;42.708;23.282;2023-03-01T14:09:23;7.90;99.90
2889;DHT22;1453;42.708;23.282;2023-03-01T14:20:41;8.10;99.90
2889;DHT22;1453;42.708;23.282;2023-03-01T14:23:14;7.90;99.90
2889;DHT22;1453;42.708;23.282;2023-03-01T14:25:49;7.90;99.90
2889;DHT22;1453;42.708;23.282;2023-03-01T14:28:33;7.80;99.90
2889;DHT22;1453;42.708;23.282;2023-03-01T14:31:03;7.80;99.90
2889;DHT22;1453;42.708;23.282;2023-03-01T14:33:56;7.70;99.90
2889;DHT22;1453;42.708;23.282;2023-03-01T14:36:31;7.60;99.90
2889;DHT22;1453;42.708;23.282;2023-03-01T14:38:58;7.50;99.90
2889;DHT22;1453;42.708;23.282;2023-03-01T14:41:34;7.70;99.90
2889;DHT22;1453;42.708;23.282;2023-03-01T14:44:05;7.60;99.90
2889;DHT22;1453;42.708;23.282;2023-03-01T14:46:38;7.50;99.90
2889;DHT22;1453;42.708;23.282;2023-03-01T14:54:30;7.50;99.90
2889;DHT22;1453;42.708;23.282;2023-03-01T14:57:01;7.50;99.90
2889;DHT22;1453;42.708;23.282;2023-03-01T14:59:27;7.50;99.90
2889;DHT22;1453;42.708;23.282;2023-03-01T15:01:56;7.40;99.90
2889;DHT22;1453;42.708;23.282;2023-03-01T15:04:24;7.30;99.90
2889;DHT22;1453;42.708;23.282;2023-03-01T15:06:52;7.30;99.90
2889;DHT22;1453;42.708;23.282;2023-03-01T15:09:19;7.40;99.90
2889;DHT22;1453;42.708;23.282;2023-03-01T15:11:45;7.30;99.90
2889;DHT22;1453;42.708;23.282;2023-03-01T15:14:49;7.20;99.90
2889;DHT22;1453;42.708;23.282;2023-03-01T15:20:05;7.10;99.90
2889;DHT22;1453;42.708;23.282;2023-03-01T15:22:44;7.20;99.90
2889;DHT22;1453;42.708;23.282;2023-03-01T15:25:18;7.10;99.90
2889;DHT22;1453;42.708;23.282;2023-03-01T15:27:53;7.10;99.90
2889;DHT22;1453;42.708;23.282;2023-03-01T15:35:53;6.90;99.90
2889;DHT22;1453;42.708;23.282;2023-03-01T15:38:36;6.80;99.90
2889;DHT22;1453;42.708;23.282;2023-03-01T15:41:29;6.90;99.90
2889;DHT22;1453;42.708;23.282;2023-03-01T15:44:03;6.80;99.90
2889;DHT22;1453;42.708;23.282;2023-03-01T15:46:46;6.90;99.90
2889;DHT22;1453;42.708;23.282;2023-03-01T15:52:13;6.80;99.90
2889;DHT22;1453;42.708;23.282;2023-03-01T15:54:46;6.70;99.90
2889;DHT22;1453;42.708;23.282;2023-03-01T15:57:13;6.70;99.90
2889;DHT22;1453;42.708;23.282;2023-03-01T15:59:40;6.60;99.90
2889;DHT22;1453;42.708;23.282;2023-03-01T16:02:11;6.60;99.90
2889;DHT22;1453;42.708;23.282;2023-03-01T16:04:40;6.60;99.90
2889;DHT22;1453;42.708;23.282;2023-03-01T16:07:06;6.50;99.90
2889;DHT22;1453;42.708;23.282;2023-03-01T16:09:32;6.50;99.90
2889;DHT22;1453;42.708;23.282;2023-03-01T16:11:58;6.50;99.90
2889;DHT22;1453;42.708;23.282;2023-03-01T16:14:24;6.50;99.90
2889;DHT22;1453;42.708;23.282;2023-03-01T16:16:49;6.40;99.90
2889;DHT22;1453;42.708;23.282;2023-03-01T16:19:16;6.30;99.90
2889;DHT22;1453;42.708;23.282;2023-03-01T16:21:42;6.40;99.90
2889;DHT22;1453;42.708;23.282;2023-03-01T16:24:12;6.40;99.90
2889;DHT22;1453;42.708;23.282;2023-03-01T16:26:38;6.40;99.90
2889;DHT22;1453;42.708;23.282;2023-03-01T16:29:05;6.40;99.90
2889;DHT22;1453;42.708;23.282;2023-03-01T16:31:31;6.40;99.90
2889;DHT22;1453;42.708;23.282;2023-03-01T16:33:58;6.40;99.90
2889;DHT22;1453;42.708;23.282;2023-03-01T16:36:27;6.40;99.90
2889;DHT22;1453;42.708;23.282;2023-03-01T16:38:54;6.40;99.90
2889;DHT22;1453;42.708;23.282;2023-03-01T16:41:22;6.40;99.90
2889;DHT22;1453;42.708;23.282;2023-03-01T16:43:48;6.30;99.90
2889;DHT22;1453;42.708;23.282;2023-03-01T16:46:28;6.30;99.90
2889;DHT22;1453;42.708;23.282;2023-03-01T16:48:55;6.40;99.90
2889;DHT22;1453;42.708;23.282;2023-03-01T16:51:25;6.40;99.90
2889;DHT22;1453;42.708;23.282;2023-03-01T16:53:51;6.40;99.90
2889;DHT22;1453;42.708;23.282;2023-03-01T16:56:17;6.30;99.90
2889;DHT22;1453;42.708;23.282;2023-03-01T16:58:44;6.40;99.90
2889;DHT22;1453;42.708;23.282;2023-03-01T17:03:39;6.30;99.90
2889;DHT22;1453;42.708;23.282;2023-03-01T17:06:11;6.20;99.90
2889;DHT22;1453;42.708;23.282;2023-03-01T17:08:39;6.20;99.90
2889;DHT22;1453;42.708;23.282;2023-03-01T17:11:11;6.20;99.90
2889;DHT22;1453;42.708;23.282;2023-03-01T17:13:39;6.20;99.90
2889;DHT22;1453;42.708;23.282;2023-03-01T17:16:09;6.10;99.90
2889;DHT22;1453;42.708;23.282;2023-03-01T17:18:36;6.10;99.90
2889;DHT22;1453;42.708;23.282;2023-03-01T17:21:03;6.10;99.90
2889;DHT22;1453;42.708;23.282;2023-03-01T17:23:31;6.20;99.90
2889;DHT22;1453;42.708;23.282;2023-03-01T17:25:57;6.20;99.90
2889;DHT22;1453;42.708;23.282;2023-03-01T17:28:25;6.20;99.90
2889;DHT22;1453;42.708;23.282;2023-03-01T17:30:52;6.20;99.90
2889;DHT22;1453;42.708;23.282;2023-03-01T17:33:19;6.10;99.90
2889;DHT22;1453;42.708;23.282;2023-03-01T17:35:45;6.10;99.90
2889;DHT22;1453;42.708;23.282;2023-03-01T17:38:13;6.20;99.90
2889;DHT22;1453;42.708;23.282;2023-03-01T17:40:42;6.20;99.90
2889;DHT22;1453;42.708;23.282;2023-03-01T17:43:13;6.20;99.90
2889;DHT22;1453;42.708;23.282;2023-03-01T17:45:40;6.20;99.90
2889;DHT22;1453;42.708;23.282;2023-03-01T17:48:08;6.10;99.90
2889;DHT22;1453;42.708;23.282;2023-03-01T17:50:37;6.10;99.90
2889;DHT22;1453;42.708;23.282;2023-03-01T17:53:05;6.10;99.90
2889;DHT22;1453;42.708;23.282;2023-03-01T17:55:35;6.00;99.90
2889;DHT22;1453;42.708;23.282;2023-03-01T17:58:02;6.00;99.90
2889;DHT22;1453;42.708;23.282;2023-03-01T18:00:29;5.90;99.90
2889;DHT22;1453;42.708;23.282;2023-03-01T18:02:55;5.90;99.90
2889;DHT22;1453;42.708;23.282;2023-03-01T18:05:21;5.90;99.90
2889;DHT22;1453;42.708;23.282;2023-03-01T18:07:46;5.80;99.90
2889;DHT22;1453;42.708;23.282;2023-03-01T18:10:12;5.80;99.90
2889;DHT22;1453;42.708;23.282;2023-03-01T18:12:38;5.90;99.90
2889;DHT22;1453;42.708;23.282;2023-03-01T18:15:05;5.80;99.90
2889;DHT22;1453;42.708;23.282;2023-03-01T18:17:32;5.80;99.90
2889;DHT22;1453;42.708;23.282;2023-03-01T18:19:58;5.70;99.90
2889;DHT22;1453;42.708;23.282;2023-03-01T18:22:24;5.80;99.90
2889;DHT22;1453;42.708;23.282;2023-03-01T18:24:50;5.80;99.90
2889;DHT22;1453;42.708;23.282;2023-03-01T18:27:19;5.70;99.90
2889;DHT22;1453;42.708;23.282;2023-03-01T18:29:45;5.70;99.90
2889;DHT22;1453;42.708;23.282;2023-03-01T18:32:11;5.70;99.90
2889;DHT22;1453;42.708;23.282;2023-03-01T18:34:37;5.70;99.90
2889;DHT22;1453;42.708;23.282;2023-03-01T18:37:03;5.80;99.90
2889;DHT22;1453;42.708;23.282;2023-03-01T18:39:29;5.80;99.90
2889;DHT22;1453;42.708;23.282;2023-03-01T18:41:55;5.80;99.90
2889;DHT22;1453;42.708;23.282;2023-03-01T18:44:20;5.70;99.90
2889;DHT22;1453;42.708;23.282;2023-03-01T18:46:46;5.70;99.90